createdAt,value
2023-03-19T00:00:54.523Z,40877.85
2023-03-19T00:01:58.405Z,37555.69
2023-03-19T00:03:02.084Z,34551.49
2023-03-19T00:04:05.577Z,33067.70
2023-03-19T00:05:08.756Z,33073.68
2023-03-19T00:06:12.459Z,30357.84
2023-03-19T00:07:15.846Z,30499.32
2023-03-19T00:08:19.128Z,39295.80
2023-03-19T00:09:22.122Z,45220.76
2023-03-19T00:10:25.091Z,49167.00
2023-03-19T00:11:28.184Z,48668.50
2023-03-19T00:12:30.954Z,52318.62
2023-03-19T00:13:33.821Z,48659.49
2023-03-19T00:14:36.711Z,43813.91
2023-03-19T00:15:39.673Z,40764.97
2023-03-19T00:16:42.883Z,43397.05
2023-03-19T00:17:46.136Z,43407.05
2023-03-19T00:18:49.556Z,41399.35
2023-03-19T00:19:52.895Z,38912.37
2023-03-19T00:20:55.901Z,35050.20
2023-03-19T00:21:58.829Z,34870.66
2023-03-19T00:23:02.336Z,31342.30
2023-03-19T00:24:05.324Z,29709.31
2023-03-19T00:25:08.620Z,28625.67
2023-03-19T00:26:11.792Z,27930.63
2023-03-19T00:27:15.383Z,30811.18
2023-03-19T00:28:18.359Z,29537.98
2023-03-19T00:29:21.436Z,27257.61
2023-03-19T00:30:24.543Z,27536.36
2023-03-19T00:31:27.493Z,28536.04
2023-03-19T00:32:30.719Z,29073.83
2023-03-19T00:33:33.547Z,28449.41
2023-03-19T00:34:36.633Z,30075.90
2023-03-19T00:35:39.549Z,32124.67
2023-03-19T00:36:42.285Z,34719.05
2023-03-19T00:37:45.574Z,33470.50
2023-03-19T00:38:48.442Z,28952.32
2023-03-19T00:39:51.236Z,26664.34
2023-03-19T00:40:54.281Z,27190.91
2023-03-19T00:41:56.977Z,26370.72
2023-03-19T00:43:00.244Z,27529.39
2023-03-19T00:44:03.110Z,27742.45
2023-03-19T00:45:06.399Z,28402.61
2023-03-19T00:46:09.542Z,28711.32
2023-03-19T00:47:12.171Z,28883.61
2023-03-19T00:48:15.226Z,29124.63
2023-03-19T00:49:17.819Z,29136.58
2023-03-19T00:50:20.772Z,29301.91
2023-03-19T00:51:23.663Z,26626.51
2023-03-19T00:52:26.617Z,28990.17
2023-03-19T00:53:29.204Z,37416.95
2023-03-19T00:54:32.304Z,33384.75
2023-03-19T00:55:35.443Z,31077.23
2023-03-19T00:56:38.426Z,31021.43
2023-03-19T00:57:41.325Z,32843.38
2023-03-19T00:58:44.197Z,31463.88
2023-03-19T00:59:47.067Z,32051.91
2023-03-19T01:00:50.031Z,30665.71
2023-03-19T01:01:53.209Z,29665.48
2023-03-19T01:02:56.389Z,28842.77
2023-03-19T01:03:59.595Z,29285.98
2023-03-19T01:05:02.653Z,29210.28
2023-03-19T01:06:05.558Z,29529.01
2023-03-19T01:07:08.419Z,32441.64
2023-03-19T01:08:11.194Z,32379.84
2023-03-19T01:09:14.173Z,31940.27
2023-03-19T01:10:17.219Z,31968.18
2023-03-19T01:11:20.414Z,31769.84
2023-03-19T01:12:23.585Z,35733.54
2023-03-19T01:13:26.868Z,31530.65
2023-03-19T01:14:33.121Z,34069.79
2023-03-19T01:15:36.611Z,31415.05
2023-03-19T01:16:39.616Z,33065.70
2023-03-19T01:17:42.581Z,36269.32
2023-03-19T01:18:48.325Z,37500.79
2023-03-19T01:19:51.094Z,39698.25
2023-03-19T01:20:53.954Z,38619.84
2023-03-19T01:21:56.836Z,41322.42
2023-03-19T01:22:59.633Z,49755.68
2023-03-19T01:24:02.300Z,50669.89
2023-03-19T01:25:04.860Z,45131.75
2023-03-19T01:26:07.425Z,45472.78
2023-03-19T01:27:10.183Z,42556.47
2023-03-19T01:28:12.952Z,44139.83
2023-03-19T01:29:15.934Z,50961.33
2023-03-19T01:30:19.419Z,57726.39
2023-03-19T01:31:22.673Z,58159.81
2023-03-19T01:32:25.887Z,63557.46
2023-03-19T01:33:29.075Z,56966.01
2023-03-19T01:34:32.346Z,49712.62
2023-03-19T01:35:35.450Z,52861.67
2023-03-19T01:36:38.333Z,51408.03
2023-03-19T01:37:41.217Z,52294.58
2023-03-19T01:38:44.161Z,65333.17
2023-03-19T01:39:47.573Z,69760.33
2023-03-19T01:40:50.453Z,78004.16
2023-03-19T01:41:53.413Z,74224.64
2023-03-19T01:42:56.407Z,64310.05
2023-03-19T01:43:59.555Z,52702.36
2023-03-19T01:45:02.832Z,50417.54
2023-03-19T01:46:06.070Z,48753.58
2023-03-19T01:47:09.196Z,44771.75
2023-03-19T01:48:12.483Z,46904.23
2023-03-19T01:49:15.585Z,44622.76
2023-03-19T01:50:18.456Z,42936.26
2023-03-19T01:51:21.864Z,41637.14
2023-03-19T01:52:24.618Z,39475.55
2023-03-19T01:53:27.288Z,40736.00
2023-03-19T01:54:30.243Z,38912.37
2023-03-19T01:55:33.238Z,37246.28
2023-03-19T01:56:36.602Z,35332.50
2023-03-19T01:57:39.603Z,45479.79
2023-03-19T01:58:42.490Z,53110.18
2023-03-19T01:59:45.050Z,52013.07
2023-03-19T02:00:47.918Z,55210.07
2023-03-19T02:01:50.964Z,53406.80
2023-03-19T02:02:53.890Z,48639.48
2023-03-19T02:03:56.827Z,44107.84
2023-03-19T02:04:59.824Z,55664.27
2023-03-19T02:06:02.912Z,54619.58
2023-03-19T02:07:05.984Z,49030.86
2023-03-19T02:08:08.757Z,49932.89
2023-03-19T02:09:11.536Z,48911.74
2023-03-19T02:10:14.409Z,52773.50
2023-03-19T02:11:17.735Z,48911.74
2023-03-19T02:12:20.950Z,46097.91
2023-03-19T02:13:24.143Z,45865.86
2023-03-19T02:14:26.905Z,45163.75
2023-03-19T02:15:29.503Z,43106.18
2023-03-19T02:16:32.331Z,46493.05
2023-03-19T02:17:35.120Z,47108.34
2023-03-19T02:18:37.644Z,49944.91
2023-03-19T02:19:40.301Z,47897.85
2023-03-19T02:20:43.037Z,47655.68
2023-03-19T02:21:45.805Z,47048.30
2023-03-19T02:22:48.983Z,48114.02
2023-03-19T02:23:51.687Z,45043.75
2023-03-19T02:24:54.241Z,46726.15
2023-03-19T02:25:57.020Z,49397.25
2023-03-19T02:27:00.117Z,47487.57
2023-03-19T02:28:03.079Z,46251.96
2023-03-19T02:29:05.844Z,47821.79
2023-03-19T02:30:08.899Z,47379.50
2023-03-19T02:31:11.699Z,43512.01
2023-03-19T02:32:14.544Z,48022.95
2023-03-19T02:33:17.857Z,57974.20
2023-03-19T02:34:20.909Z,76141.17
2023-03-19T02:35:23.885Z,92371.56
2023-03-19T02:36:26.783Z,103265.75
2023-03-19T02:37:32.907Z,103802.55
2023-03-19T02:38:34.374Z,105560.59
2023-03-19T02:39:37.343Z,109453.94
2023-03-19T02:40:40.231Z,110691.89
2023-03-19T02:41:43.280Z,107086.81
2023-03-19T02:42:46.260Z,100147.81
2023-03-19T02:43:49.449Z,107966.45
2023-03-19T02:44:52.445Z,108252.93
2023-03-19T02:45:55.402Z,111732.95
2023-03-19T02:46:58.205Z,111993.27
2023-03-19T02:48:00.869Z,111212.39
2023-03-19T02:49:04.013Z,110822.01
2023-03-19T02:50:07.121Z,113034.66
2023-03-19T02:51:10.181Z,114206.55
2023-03-19T02:52:13.136Z,114206.55
2023-03-19T02:53:15.982Z,114727.50
2023-03-19T02:54:18.797Z,114467.02
2023-03-19T02:55:21.789Z,114597.26
2023-03-19T02:56:24.650Z,115118.26
2023-03-19T02:57:27.768Z,113555.46
2023-03-19T02:58:30.932Z,114076.33
2023-03-19T02:59:33.900Z,112644.11
2023-03-19T03:00:36.739Z,113295.05
2023-03-19T03:01:39.957Z,113425.25
2023-03-19T03:02:42.744Z,106101.77
2023-03-19T03:03:45.799Z,95238.43
2023-03-19T03:04:49.016Z,75347.03
2023-03-19T03:05:51.786Z,65683.98
2023-03-19T03:06:54.460Z,57289.00
2023-03-19T03:07:57.227Z,54755.91
2023-03-19T03:08:59.896Z,49218.06
2023-03-19T03:10:02.669Z,49180.02
2023-03-19T03:11:05.236Z,56572.84
2023-03-19T03:12:07.907Z,57938.07
2023-03-19T03:13:10.586Z,50370.47
2023-03-19T03:14:13.528Z,57585.94
2023-03-19T03:15:16.358Z,68073.16
2023-03-19T03:16:19.348Z,57157.59
2023-03-19T03:17:22.069Z,50024.01
2023-03-19T03:18:25.277Z,57129.51
2023-03-19T03:19:28.003Z,68369.91
2023-03-19T03:20:30.887Z,87484.75
2023-03-19T03:21:35.548Z,71728.08
2023-03-19T03:22:38.369Z,54599.53
2023-03-19T03:23:41.456Z,55292.28
2023-03-19T03:24:44.232Z,77173.37
2023-03-19T03:25:47.403Z,91404.24
2023-03-19T03:26:50.480Z,101842.41
2023-03-19T03:27:53.564Z,102104.11
2023-03-19T03:28:56.541Z,83124.80
2023-03-19T03:29:59.623Z,84888.01
2023-03-19T03:31:03.016Z,94537.72
2023-03-19T03:32:05.995Z,88295.44
2023-03-19T03:33:08.820Z,91951.62
2023-03-19T03:34:11.565Z,105917.98
2023-03-19T03:35:14.511Z,104393.22
2023-03-19T03:36:17.707Z,104049.16
2023-03-19T03:37:20.666Z,108842.20
2023-03-19T03:38:24.052Z,109911.27
2023-03-19T03:39:27.146Z,107250.33
2023-03-19T03:40:30.212Z,111863.11
2023-03-19T03:41:33.388Z,108720.28
2023-03-19T03:42:36.466Z,104196.32
2023-03-19T03:43:39.348Z,98272.53
2023-03-19T03:44:42.014Z,104458.17
2023-03-19T03:45:44.736Z,103238.36
2023-03-19T03:46:47.663Z,95997.00
2023-03-19T03:47:50.435Z,93385.66
2023-03-19T03:48:53.209Z,95130.08
2023-03-19T03:49:56.302Z,85659.78
2023-03-19T03:50:59.376Z,92799.64
2023-03-19T03:52:02.349Z,80708.45
2023-03-19T03:53:05.118Z,79887.19
2023-03-19T03:54:08.507Z,88457.19
2023-03-19T03:55:11.792Z,97090.02
2023-03-19T03:56:14.672Z,93269.27
2023-03-19T03:57:17.745Z,77557.48
2023-03-19T03:58:20.633Z,90179.25
2023-03-19T03:59:23.488Z,78069.70
2023-03-19T04:00:26.474Z,51037.44
2023-03-19T04:01:29.343Z,43419.04
2023-03-19T04:02:32.359Z,38809.53
2023-03-19T04:03:40.890Z,41702.09
2023-03-19T04:04:43.702Z,43697.95
2023-03-19T04:05:46.489Z,40867.86
2023-03-19T04:06:49.268Z,38642.80
2023-03-19T04:07:52.636Z,40644.10
2023-03-19T04:08:55.307Z,43200.14
2023-03-19T04:09:58.184Z,39225.91
2023-03-19T04:11:00.844Z,37432.92
2023-03-19T04:12:03.618Z,35787.41
2023-03-19T04:13:06.595Z,37129.52
2023-03-19T04:14:09.377Z,33782.60
2023-03-19T04:15:12.250Z,37362.06
2023-03-19T04:16:15.067Z,35335.49
2023-03-19T04:17:17.789Z,36642.51
2023-03-19T04:18:20.770Z,36257.34
2023-03-19T04:19:23.535Z,33886.31
2023-03-19T04:20:26.202Z,35035.24
2023-03-19T04:21:29.185Z,35177.88
2023-03-19T04:22:32.060Z,29067.86
2023-03-19T04:23:35.041Z,28340.87
2023-03-19T04:24:37.739Z,31520.69
2023-03-19T04:25:40.475Z,33948.13
2023-03-19T04:26:43.144Z,38525.98
2023-03-19T04:27:45.847Z,42785.34
2023-03-19T04:28:50.664Z,40060.78
2023-03-19T04:29:53.417Z,31425.02
2023-03-19T04:30:56.349Z,32671.92
2023-03-19T04:31:59.059Z,30019.12
2023-03-19T04:33:01.753Z,35143.96
2023-03-19T04:34:04.497Z,34808.82
2023-03-19T04:35:07.271Z,43202.13
2023-03-19T04:36:09.937Z,48691.52
2023-03-19T04:37:12.913Z,53172.31
2023-03-19T04:38:16.096Z,57673.21
2023-03-19T04:39:19.392Z,61305.54
2023-03-19T04:40:22.375Z,76677.39
2023-03-19T04:41:25.436Z,79606.75
2023-03-19T04:42:28.317Z,72846.75
2023-03-19T04:43:31.410Z,75475.02
2023-03-19T04:44:34.681Z,59161.27
2023-03-19T04:45:37.350Z,62202.34
2023-03-19T04:46:40.423Z,67322.88
2023-03-19T04:47:43.094Z,73188.16
2023-03-19T04:48:45.867Z,73072.34
2023-03-19T04:49:51.115Z,75740.05
2023-03-19T04:50:54.085Z,67692.97
2023-03-19T04:53:12.930Z,50741.00
2023-03-19T04:54:15.701Z,54650.66
2023-03-19T04:55:18.615Z,52090.20
2023-03-19T04:56:21.348Z,47252.42
2023-03-19T04:57:24.024Z,53709.46
2023-03-19T04:58:26.819Z,44602.76
2023-03-19T04:59:29.461Z,38815.52
2023-03-19T05:00:32.795Z,34284.21
2023-03-19T05:01:35.777Z,30163.57
2023-03-19T05:02:38.596Z,29896.59
2023-03-19T05:03:41.530Z,29259.08
2023-03-19T05:04:44.253Z,30631.83
2023-03-19T05:05:47.023Z,31086.20
2023-03-19T05:06:49.790Z,29085.78
2023-03-19T05:07:52.456Z,30275.15
2023-03-19T05:08:55.127Z,29260.08
2023-03-19T05:09:57.898Z,34855.70
2023-03-19T05:11:00.980Z,38105.70
2023-03-19T05:12:03.966Z,33402.70
2023-03-19T05:13:06.633Z,31921.34
2023-03-19T05:14:09.604Z,34952.45
2023-03-19T05:15:12.478Z,34231.35
2023-03-19T05:16:15.848Z,30265.19
2023-03-19T05:17:18.737Z,29866.70
2023-03-19T05:18:21.831Z,28439.45
2023-03-19T05:19:24.903Z,31811.70
2023-03-19T05:20:27.876Z,33502.41
2023-03-19T05:21:31.156Z,35893.17
2023-03-19T05:22:34.257Z,43386.06
2023-03-19T05:23:36.907Z,53975.06
2023-03-19T05:24:39.581Z,51807.70
2023-03-19T05:25:42.349Z,42752.36
2023-03-19T05:26:45.429Z,36278.30
2023-03-19T05:27:48.203Z,34822.78
2023-03-19T05:28:50.976Z,36350.14
2023-03-19T05:29:53.853Z,35014.29
2023-03-19T05:30:56.671Z,30756.38
2023-03-19T05:31:59.614Z,27833.05
2023-03-19T05:33:02.472Z,28597.79
2023-03-19T05:34:05.242Z,39930.94
2023-03-19T05:35:08.324Z,45811.84
2023-03-19T05:36:11.100Z,49436.30
2023-03-19T05:37:14.588Z,36768.25
2023-03-19T05:38:17.779Z,31783.80
2023-03-19T05:39:20.844Z,45488.79
2023-03-19T05:40:23.826Z,43347.07
2023-03-19T05:41:27.008Z,38777.58
2023-03-19T05:42:29.790Z,40499.26
2023-03-19T05:43:32.752Z,43684.95
2023-03-19T05:44:35.734Z,51648.43
2023-03-19T05:45:38.401Z,52207.42
2023-03-19T05:46:41.205Z,52613.18
2023-03-19T05:47:43.842Z,43013.22
2023-03-19T05:48:46.640Z,40740.00
2023-03-19T05:49:49.282Z,35885.19
2023-03-19T05:50:52.053Z,29991.22
2023-03-19T05:51:54.726Z,29853.75
2023-03-19T05:52:57.501Z,33766.64
2023-03-19T05:54:00.278Z,43929.88
2023-03-19T05:55:03.352Z,36073.76
2023-03-19T05:56:06.430Z,45653.81
2023-03-19T05:57:09.513Z,47655.68
2023-03-19T05:58:12.531Z,39798.12
2023-03-19T05:59:15.177Z,33745.70
2023-03-19T06:00:17.929Z,33847.42
2023-03-19T06:01:21.154Z,39601.37
2023-03-19T06:02:24.133Z,46366.00
2023-03-19T06:03:27.066Z,53713.47
2023-03-19T06:04:30.148Z,55891.89
2023-03-19T06:05:33.119Z,54440.14
2023-03-19T06:06:36.201Z,57760.50
2023-03-19T06:07:39.156Z,58372.52
2023-03-19T06:08:42.052Z,58093.59
2023-03-19T06:09:45.130Z,49377.23
2023-03-19T06:10:48.211Z,60030.48
2023-03-19T06:11:51.189Z,71897.22
2023-03-19T06:12:54.079Z,80022.38
2023-03-19T06:13:57.042Z,74547.02
2023-03-19T06:14:59.808Z,69857.94
2023-03-19T06:16:02.617Z,77513.13
2023-03-19T06:17:05.675Z,75577.80
2023-03-19T06:18:08.543Z,70645.95
2023-03-19T06:19:11.615Z,81376.48
2023-03-19T06:20:14.288Z,81922.50
2023-03-19T06:21:17.371Z,87687.91
2023-03-19T06:22:21.364Z,86445.85
2023-03-19T06:23:24.137Z,87245.21
2023-03-19T06:24:27.113Z,82515.02
2023-03-19T06:25:30.090Z,71523.71
2023-03-19T06:26:33.076Z,83851.80
2023-03-19T06:27:35.947Z,90543.37
2023-03-19T06:28:39.125Z,98155.98
2023-03-19T06:29:42.115Z,92148.94
2023-03-19T06:30:44.773Z,84211.31
2023-03-19T06:31:47.671Z,78238.11
2023-03-19T06:32:50.308Z,71379.75
2023-03-19T06:33:53.087Z,68083.23
2023-03-19T06:34:56.189Z,64166.36
2023-03-19T06:35:59.028Z,58554.14
2023-03-19T06:37:01.819Z,57658.17
2023-03-19T06:38:04.592Z,58557.15
2023-03-19T06:39:07.263Z,58611.34
2023-03-19T06:40:10.450Z,61441.10
2023-03-19T06:41:13.419Z,61161.95
2023-03-19T06:42:16.162Z,62511.69
2023-03-19T06:43:19.170Z,69552.04
2023-03-19T06:44:22.278Z,84572.88
2023-03-19T06:45:25.436Z,91864.59
2023-03-19T06:46:28.409Z,89306.50
2023-03-19T06:47:31.387Z,86686.34
2023-03-19T06:48:34.466Z,78415.59
2023-03-19T06:49:37.347Z,87397.83
2023-03-19T06:50:40.932Z,85880.03
2023-03-19T06:51:43.825Z,79374.74
2023-03-19T06:52:46.781Z,75139.45
2023-03-19T06:53:49.693Z,73680.68
2023-03-19T06:54:52.539Z,70282.62
2023-03-19T06:55:55.415Z,68066.13
2023-03-19T06:56:58.385Z,64663.79
2023-03-19T06:58:01.394Z,66690.36
2023-03-19T06:59:04.339Z,64692.94
2023-03-19T07:00:07.428Z,65279.90
2023-03-19T07:01:10.591Z,68430.26
2023-03-19T07:02:13.472Z,74459.37
2023-03-19T07:03:16.346Z,79314.22
2023-03-19T07:04:19.431Z,87519.11
2023-03-19T07:05:22.097Z,84775.89
2023-03-19T07:06:25.381Z,87731.38
2023-03-19T07:07:28.366Z,100556.44
2023-03-19T07:08:31.333Z,102343.51
2023-03-19T07:09:34.316Z,104490.66
2023-03-19T07:10:37.326Z,107249.31
2023-03-19T07:11:40.676Z,106402.33
2023-03-19T07:12:43.664Z,109651.09
2023-03-19T07:13:46.469Z,108220.42
2023-03-19T07:14:49.302Z,109390.93
2023-03-19T07:15:52.180Z,108220.42
2023-03-19T07:16:55.257Z,104968.74
2023-03-19T07:17:58.231Z,104206.47
2023-03-19T07:19:04.388Z,91200.89
2023-03-19T07:20:07.459Z,75968.82
2023-03-19T07:21:10.336Z,63881.99
2023-03-19T07:22:13.412Z,57511.70
2023-03-19T07:23:16.399Z,53714.47
2023-03-19T07:24:19.478Z,59637.01
2023-03-19T07:25:23.502Z,56682.16
2023-03-19T07:26:27.471Z,55197.04
2023-03-19T07:27:30.447Z,55065.70
2023-03-19T07:28:33.125Z,58022.35
2023-03-19T07:29:35.889Z,63828.74
2023-03-19T07:30:38.667Z,63398.71
2023-03-19T07:31:41.500Z,61588.71
2023-03-19T07:32:44.368Z,56530.71
2023-03-19T07:33:47.085Z,54865.19
2023-03-19T07:34:49.856Z,59167.30
2023-03-19T07:35:52.694Z,58093.59
2023-03-19T07:36:55.407Z,55130.86
2023-03-19T07:37:58.176Z,56273.97
2023-03-19T07:39:01.046Z,72471.14
2023-03-19T07:40:03.718Z,87194.67
2023-03-19T07:41:06.487Z,95939.27
2023-03-19T07:42:09.262Z,102701.63
2023-03-19T07:43:12.138Z,102473.36
2023-03-19T07:44:14.799Z,99153.30
2023-03-19T07:45:17.481Z,97035.31
2023-03-19T07:46:20.300Z,97238.96
2023-03-19T07:47:29.009Z,100944.82
2023-03-19T07:48:27.347Z,104321.16
2023-03-19T07:49:30.105Z,108090.38
2023-03-19T07:50:33.192Z,111212.39
2023-03-19T07:51:36.057Z,113946.10
2023-03-19T07:52:39.161Z,115639.32
2023-03-19T07:53:42.414Z,116681.65
2023-03-19T07:54:45.396Z,116943.30
2023-03-19T07:55:48.395Z,116943.30
2023-03-19T07:56:51.451Z,116943.30
2023-03-19T07:57:54.433Z,116943.30
2023-03-19T07:58:57.816Z,116943.30
2023-03-19T08:00:00.789Z,116943.30
2023-03-19T08:01:03.772Z,116943.30
2023-03-19T08:02:06.868Z,116943.30
2023-03-19T08:03:09.935Z,116943.30
2023-03-19T08:04:12.940Z,116943.30
2023-03-19T08:05:15.783Z,116943.30
2023-03-19T08:06:18.861Z,116943.30
2023-03-19T08:07:21.833Z,116943.30
2023-03-19T08:08:24.914Z,116943.30
2023-03-19T08:09:28.407Z,116943.30
2023-03-19T08:10:31.279Z,116943.30
2023-03-19T08:11:34.355Z,116943.30
2023-03-19T08:12:37.331Z,116943.30
2023-03-19T08:13:40.004Z,116943.30
2023-03-19T08:14:43.094Z,116943.30
2023-03-19T08:15:45.852Z,116943.30
2023-03-19T08:16:48.704Z,116943.30
2023-03-19T08:17:51.397Z,116943.30
2023-03-19T08:18:54.280Z,116943.30
2023-03-19T08:19:57.255Z,116943.30
2023-03-19T08:20:59.816Z,116943.30
2023-03-19T08:22:02.587Z,116943.30
2023-03-19T08:23:05.365Z,116943.30
2023-03-19T08:24:08.134Z,116943.30
2023-03-19T08:25:11.473Z,116943.30
2023-03-19T08:26:16.857Z,116943.30
2023-03-19T08:27:19.730Z,116943.30
2023-03-19T08:28:22.705Z,116943.30
2023-03-19T08:29:25.578Z,116943.30
2023-03-19T08:30:29.080Z,116943.30
2023-03-19T08:31:32.157Z,116943.30
2023-03-19T08:32:35.358Z,116943.30
2023-03-19T08:33:38.013Z,116943.30
2023-03-19T08:34:40.981Z,116943.30
2023-03-19T08:35:43.806Z,116943.30
2023-03-19T08:36:46.831Z,116943.30
2023-03-19T08:37:49.500Z,116943.30
2023-03-19T08:38:52.373Z,116943.30
2023-03-19T08:39:55.148Z,116943.30
2023-03-19T08:40:57.711Z,116943.30
2023-03-19T08:42:00.607Z,116943.30
2023-03-19T08:43:03.274Z,116943.30
2023-03-19T08:44:06.339Z,116943.30
2023-03-19T08:45:09.211Z,116943.30
2023-03-19T08:46:12.124Z,116943.30
2023-03-19T08:47:15.036Z,116943.30
2023-03-19T08:48:18.145Z,116943.30
2023-03-19T08:49:21.017Z,116943.30
2023-03-19T08:50:23.890Z,116943.30
2023-03-19T08:51:26.766Z,116943.30
2023-03-19T08:52:29.951Z,116943.30
2023-03-19T08:53:33.025Z,116943.30
2023-03-19T08:54:35.798Z,116943.30
2023-03-19T08:55:38.467Z,116943.30
2023-03-19T08:56:41.444Z,116943.30
2023-03-19T08:57:44.423Z,116943.30
2023-03-19T08:58:47.502Z,116943.30
2023-03-19T08:59:50.284Z,116943.30
2023-03-19T09:00:53.151Z,116943.30
2023-03-19T09:01:55.932Z,116943.30
2023-03-19T09:02:58.709Z,116943.30
2023-03-19T09:04:01.259Z,116943.30
2023-03-19T09:05:04.031Z,116943.30
2023-03-19T09:06:06.602Z,116943.30
2023-03-19T09:07:09.575Z,116943.30
2023-03-19T09:08:12.246Z,116943.30
2023-03-19T09:09:15.019Z,116943.30
2023-03-19T09:10:18.120Z,116943.30
2023-03-19T09:11:21.059Z,116943.30
2023-03-19T09:12:23.957Z,116943.30
2023-03-19T09:13:26.723Z,116943.30
2023-03-19T09:14:29.493Z,116943.30
2023-03-19T09:15:32.912Z,116943.30
2023-03-19T09:16:35.668Z,116943.30
2023-03-19T09:17:38.524Z,116943.30
2023-03-19T09:18:41.196Z,116943.30
2023-03-19T09:19:43.968Z,116943.30
2023-03-19T09:20:46.560Z,116943.30
2023-03-19T09:21:49.645Z,116943.30
2023-03-19T09:22:52.387Z,116943.30
2023-03-19T09:23:55.473Z,116943.30
2023-03-19T09:24:58.239Z,116943.30
2023-03-19T09:26:00.924Z,116943.30
2023-03-19T09:27:03.585Z,116943.30
2023-03-19T09:28:06.757Z,116943.30
2023-03-19T09:29:09.534Z,116943.30
2023-03-19T09:30:12.208Z,116943.30
2023-03-19T09:31:14.901Z,116943.30
2023-03-19T09:32:17.653Z,116943.30
2023-03-19T09:33:20.833Z,116943.30
2023-03-19T09:34:23.709Z,116943.30
2023-03-19T09:35:26.473Z,116943.30
2023-03-19T09:36:29.354Z,116943.30
2023-03-19T09:37:32.232Z,116943.30
2023-03-19T09:38:35.712Z,116943.30
2023-03-19T09:39:38.391Z,116943.30
2023-03-19T09:40:41.053Z,116943.30
2023-03-19T09:41:43.933Z,116943.30
2023-03-19T09:42:46.914Z,116943.30
2023-03-19T09:43:49.778Z,116943.30
2023-03-19T09:44:52.658Z,116943.30
2023-03-19T09:45:55.438Z,116943.30
2023-03-19T09:46:58.365Z,116943.30
2023-03-19T09:48:01.488Z,116943.30
2023-03-19T09:49:04.674Z,116943.30
2023-03-19T09:50:07.643Z,116943.30
2023-03-19T09:51:10.621Z,116943.30
2023-03-19T09:52:13.495Z,116943.30
2023-03-19T09:53:16.367Z,116943.30
2023-03-19T09:54:19.165Z,116943.30
2023-03-19T09:55:22.117Z,116943.30
2023-03-19T09:56:24.999Z,116943.30
2023-03-19T09:57:28.178Z,116943.30
2023-03-19T09:58:31.162Z,116943.30
2023-03-19T09:59:34.232Z,116943.30
2023-03-19T10:00:37.325Z,116943.30
2023-03-19T10:01:40.438Z,116943.30
2023-03-19T10:02:43.500Z,116943.30
2023-03-19T10:03:46.416Z,116943.30
2023-03-19T10:04:49.143Z,116943.30
2023-03-19T10:05:51.993Z,116943.30
2023-03-19T10:06:54.780Z,116943.30
2023-03-19T10:07:57.612Z,116943.30
2023-03-19T10:09:00.326Z,116943.30
2023-03-19T10:10:03.082Z,116943.30
2023-03-19T10:11:05.756Z,116943.30
2023-03-19T10:12:09.754Z,116943.30
2023-03-19T10:13:12.317Z,116943.30
2023-03-19T10:14:15.095Z,116943.30
2023-03-19T10:15:17.674Z,116943.30
2023-03-19T10:16:20.386Z,116943.30
2023-03-19T10:17:22.998Z,116943.30
2023-03-19T10:18:35.088Z,116943.30
2023-03-19T10:19:40.539Z,116943.30
2023-03-19T10:20:42.381Z,116943.30
2023-03-19T10:21:45.247Z,116943.30
2023-03-19T10:22:48.236Z,116943.30
2023-03-19T10:23:51.098Z,116943.30
2023-03-19T10:24:54.077Z,116943.30
2023-03-19T10:27:07.001Z,116943.30
2023-03-19T10:28:09.773Z,116943.30
2023-03-19T10:30:20.549Z,116943.30
2023-03-19T10:31:23.718Z,116943.30
2023-03-19T10:33:42.882Z,116943.30
2023-03-19T10:34:45.886Z,116943.30
2023-03-19T10:35:48.856Z,116943.30
2023-03-19T10:36:51.814Z,116943.30
2023-03-19T10:37:54.688Z,116943.30
2023-03-19T10:38:57.663Z,116943.30
2023-03-19T10:40:00.649Z,116943.30
2023-03-19T10:41:03.412Z,116943.30
2023-03-19T10:42:06.394Z,116943.30
2023-03-19T10:43:25.050Z,116943.30
2023-03-19T10:44:28.021Z,116943.30
2023-03-19T10:45:30.963Z,116943.30
2023-03-19T10:46:33.867Z,116943.30
2023-03-19T10:47:36.756Z,116943.30
2023-03-19T10:48:39.511Z,116943.30
2023-03-19T10:49:42.313Z,116943.30
2023-03-19T10:50:45.160Z,116943.30
2023-03-19T10:51:48.039Z,116943.30
2023-03-19T10:52:50.909Z,116943.30
2023-03-19T10:53:53.712Z,116943.30
2023-03-19T10:54:56.558Z,116943.30
2023-03-19T10:57:09.677Z,116943.30
2023-03-19T10:58:12.560Z,116943.30
2023-03-19T11:00:31.619Z,116943.30
2023-03-19T11:01:34.756Z,116943.30
2023-03-19T11:02:37.396Z,116943.30
2023-03-19T11:03:40.290Z,116943.30
2023-03-19T11:04:43.218Z,116943.30
2023-03-19T11:05:46.393Z,116943.30
2023-03-19T11:06:49.377Z,116943.30
2023-03-19T11:07:52.360Z,116943.30
2023-03-19T11:08:55.424Z,116943.30
2023-03-19T11:11:14.795Z,116943.30
2023-03-19T11:12:17.475Z,116943.30
2023-03-19T11:13:20.137Z,116943.30
2023-03-19T11:14:22.809Z,116943.30
2023-03-19T11:15:25.484Z,116943.30
2023-03-19T11:16:28.297Z,116943.30
2023-03-19T11:18:47.306Z,116943.30
2023-03-19T11:19:50.185Z,116943.30
2023-03-19T11:20:53.053Z,116943.30
2023-03-19T11:21:55.622Z,116943.30
2023-03-19T11:22:58.193Z,116943.30
2023-03-19T11:24:00.867Z,116943.30
2023-03-19T11:26:19.423Z,116943.30
2023-03-19T11:27:22.185Z,116943.30
2023-03-19T11:28:26.367Z,116943.30
2023-03-19T11:29:29.475Z,116943.30
2023-03-19T11:30:32.446Z,116943.30
2023-03-19T11:31:35.326Z,116943.30
2023-03-19T11:33:54.806Z,116943.30
2023-03-19T11:34:57.584Z,116943.30
2023-03-19T11:36:00.288Z,116943.30
2023-03-19T11:37:03.316Z,116943.30
2023-03-19T11:38:05.979Z,116943.30
2023-03-19T11:39:08.855Z,116943.30
2023-03-19T11:40:11.631Z,116943.30
2023-03-19T11:41:14.571Z,116943.30
2023-03-19T11:42:17.480Z,116943.30
2023-03-19T11:43:20.576Z,116943.30
2023-03-19T11:44:23.437Z,116943.30
2023-03-19T11:45:26.337Z,116943.30
2023-03-19T11:46:29.335Z,116943.30
2023-03-19T11:48:48.155Z,116943.30
2023-03-19T11:49:51.023Z,116943.30
2023-03-19T11:50:53.690Z,116943.30
2023-03-19T11:51:56.567Z,116943.30
2023-03-19T11:52:59.335Z,116943.30
2023-03-19T11:54:02.325Z,116943.30
2023-03-19T11:55:05.392Z,116943.30
2023-03-19T11:56:08.192Z,116943.30
2023-03-19T11:57:26.713Z,116943.30
2023-03-19T11:58:29.393Z,116943.30
2023-03-19T11:59:31.946Z,116943.30
2023-03-19T12:00:34.717Z,116943.30
2023-03-19T12:01:39.221Z,116943.30
2023-03-19T12:02:41.937Z,116943.30
2023-03-19T12:03:44.839Z,116943.30
2023-03-19T12:04:47.958Z,116943.30
2023-03-19T12:05:51.036Z,116943.30
2023-03-19T12:06:53.820Z,116943.30
2023-03-19T12:07:56.691Z,116943.30
2023-03-19T12:08:59.461Z,116943.30
2023-03-19T12:10:02.160Z,116943.30
2023-03-19T12:11:04.922Z,116943.30
2023-03-19T12:12:07.880Z,116943.30
2023-03-19T12:14:26.898Z,116943.30
2023-03-19T12:15:29.723Z,116943.30
2023-03-19T12:16:32.580Z,116943.30
2023-03-19T12:17:35.155Z,116943.30
2023-03-19T12:18:37.819Z,116943.30
2023-03-19T12:19:40.388Z,116943.30
2023-03-19T12:20:43.072Z,116943.30
2023-03-19T12:23:02.226Z,116943.30
2023-03-19T12:24:04.932Z,116943.30
2023-03-19T12:25:07.569Z,116943.30
2023-03-19T12:26:10.234Z,116943.30
2023-03-19T12:27:12.899Z,116943.30